Time;durP1;ratioP1;P1;durP2;ratioP2;P2;SDS_P1;SDS_P2;PMS_P1;PMS_P2;Temp;Humidity;BMP_temperature;BMP_pressure;BME280_temperature;BME280_humidity;BME280_pressure;Samples;Min_cycle;Max_cycle;Signal;HPM_P1;HPM_P2
2023/05/12 00:02:20;;;;;;;3.67;3.37;;;16.00;99.90;;;;;;947052;148;27344;-77
2023/05/12 00:04:47;;;;;;;3.80;3.50;;;16.00;99.90;;;;;;947326;148;27261;-77
2023/05/12 00:07:13;;;;;;;4.85;4.35;;;16.00;99.90;;;;;;947380;148;27440;-77
2023/05/12 00:09:42;;;;;;;3.87;3.47;;;16.00;99.90;;;;;;947561;148;27368;-77
2023/05/12 00:12:09;;;;;;;3.47;3.17;;;16.00;99.90;;;;;;947040;148;27327;-77
2023/05/12 00:14:36;;;;;;;4.15;3.83;;;16.00;99.90;;;;;;947510;148;27328;-77
2023/05/12 00:17:02;;;;;;;3.95;3.60;;;16.00;99.90;;;;;;946976;149;27405;-77
2023/05/12 00:19:29;;;;;;;4.12;3.83;;;16.00;99.90;;;;;;913801;153;27411;-77
2023/05/12 00:21:55;;;;;;;3.42;3.15;;;16.00;99.90;;;;;;934474;149;27467;-77
2023/05/12 00:24:22;;;;;;;3.00;2.80;;;15.90;99.90;;;;;;934254;149;27357;-77
2023/05/12 00:26:49;;;;;;;3.90;3.60;;;15.90;99.90;;;;;;918165;152;27366;-77
2023/05/12 00:29:15;;;;;;;3.35;3.15;;;15.90;99.90;;;;;;919781;152;27436;-77
2023/05/12 00:31:42;;;;;;;3.77;3.47;;;15.90;99.90;;;;;;934980;149;27357;-77
2023/05/12 00:34:08;;;;;;;4.50;4.13;;;15.90;99.90;;;;;;934072;149;27811;-77
2023/05/12 00:36:35;;;;;;;3.62;3.33;;;15.80;99.90;;;;;;917730;152;27462;-77
2023/05/12 00:39:02;;;;;;;3.95;3.65;;;15.80;99.90;;;;;;912094;152;27408;-77
2023/05/12 00:41:28;;;;;;;3.30;3.10;;;15.80;99.90;;;;;;918544;152;27398;-77
2023/05/12 00:43:55;;;;;;;2.80;2.60;;;15.80;99.90;;;;;;918238;152;27391;-77
2023/05/12 00:46:21;;;;;;;2.10;2.00;;;15.80;99.90;;;;;;913011;153;27375;-77
2023/05/12 00:48:48;;;;;;;2.00;1.90;;;15.70;99.90;;;;;;912834;153;27324;-77
2023/05/12 00:51:14;;;;;;;1.55;1.45;;;15.70;99.90;;;;;;916920;153;27400;-77
2023/05/12 00:53:41;;;;;;;1.50;1.40;;;15.70;99.90;;;;;;934378;149;27450;-77
2023/05/12 00:56:08;;;;;;;1.13;1.10;;;15.60;99.90;;;;;;911973;153;27320;-77
2023/05/12 00:58:34;;;;;;;0.72;0.72;;;15.60;99.90;;;;;;927528;152;27446;-77
2023/05/12 01:01:01;;;;;;;0.50;0.50;;;15.60;99.90;;;;;;912074;153;27766;-77
2023/05/12 01:03:27;;;;;;;0.33;0.33;;;15.60;99.90;;;;;;933493;150;27447;-77
2023/05/12 01:05:54;;;;;;;0.30;0.30;;;15.50;99.90;;;;;;935108;149;27453;-77
2023/05/12 01:08:22;;;;;;;0.47;0.47;;;15.50;99.90;;;;;;911396;152;27480;-77
2023/05/12 01:10:47;;;;;;;0.65;0.62;;;15.50;99.90;;;;;;911856;153;27482;-77
2023/05/12 01:13:14;;;;;;;0.37;0.37;;;15.50;99.90;;;;;;933956;149;27378;-77
2023/05/12 01:15:41;;;;;;;0.65;0.60;;;15.50;99.90;;;;;;918709;152;27477;-77
2023/05/12 01:18:07;;;;;;;0.50;0.50;;;15.50;99.90;;;;;;917005;152;27460;-77
2023/05/12 01:20:33;;;;;;;0.30;0.30;;;15.40;99.90;;;;;;911950;153;27324;-77
2023/05/12 01:23:00;;;;;;;0.42;0.42;;;15.40;99.90;;;;;;927342;151;27343;-77
2023/05/12 01:25:27;;;;;;;0.50;0.40;;;15.40;99.90;;;;;;919177;152;27387;-77
2023/05/12 01:27:53;;;;;;;0.37;0.37;;;15.40;99.90;;;;;;918454;152;27330;-77
2023/05/12 01:30:20;;;;;;;0.62;0.62;;;15.40;99.90;;;;;;911502;152;27360;-77
2023/05/12 01:32:46;;;;;;;0.78;0.78;;;15.40;99.90;;;;;;918256;152;27335;-77
2023/05/12 01:35:13;;;;;;;0.70;0.70;;;15.40;99.90;;;;;;919545;152;27455;-77
2023/05/12 01:37:40;;;;;;;0.60;0.60;;;15.40;99.90;;;;;;915626;152;27383;-77
2023/05/12 01:40:06;;;;;;;0.53;0.53;;;15.30;99.90;;;;;;934608;149;27337;-77
2023/05/12 01:42:33;;;;;;;0.83;0.77;;;15.30;99.90;;;;;;935632;149;27275;-77
2023/05/12 01:44:59;;;;;;;0.90;0.90;;;15.30;99.90;;;;;;933828;149;27339;-77
2023/05/12 01:47:26;;;;;;;0.70;0.70;;;15.40;99.90;;;;;;917751;152;27400;-77
2023/05/12 01:49:53;;;;;;;0.70;0.70;;;15.40;99.90;;;;;;935192;149;27333;-76
2023/05/12 01:52:19;;;;;;;0.53;0.53;;;15.40;99.90;;;;;;911152;152;27350;-76
2023/05/12 01:54:46;;;;;;;0.70;0.70;;;15.40;99.90;;;;;;934868;149;27345;-76
2023/05/12 01:57:12;;;;;;;0.62;0.62;;;15.30;99.90;;;;;;922857;152;27345;-76
2023/05/12 01:59:39;;;;;;;0.78;0.78;;;15.30;99.90;;;;;;934509;149;27439;-77
2023/05/12 02:02:06;;;;;;;0.62;0.62;;;15.40;99.90;;;;;;934362;149;27287;-77
2023/05/12 02:04:33;;;;;;;1.23;0.70;;;15.40;99.90;;;;;;917919;152;27436;-77
2023/05/12 02:06:59;;;;;;;0.70;0.70;;;15.40;99.90;;;;;;919899;152;27417;-77
2023/05/12 02:09:25;;;;;;;0.93;0.93;;;15.30;99.90;;;;;;919014;152;27423;-76
2023/05/12 02:11:52;;;;;;;1.10;1.10;;;15.40;99.90;;;;;;917909;152;27447;-76
2023/05/12 02:14:18;;;;;;;1.47;1.37;;;15.40;99.90;;;;;;918951;152;27347;-77
2023/05/12 02:16:48;;;;;;;1.27;1.27;;;15.30;99.90;;;;;;912322;153;27324;-76
2023/05/12 02:19:12;;;;;;;1.80;1.70;;;15.30;99.90;;;;;;928653;150;27340;-76
2023/05/12 02:21:38;;;;;;;1.65;1.55;;;15.30;99.90;;;;;;947375;148;27360;-76
2023/05/12 02:24:05;;;;;;;1.83;1.73;;;15.30;99.90;;;;;;936242;151;27337;-76
2023/05/12 02:26:31;;;;;;;2.00;1.90;;;15.20;99.90;;;;;;931347;151;27426;-76
2023/05/12 02:28:58;;;;;;;2.13;1.90;;;15.20;99.90;;;;;;947640;148;27304;-77
2023/05/12 02:31:25;;;;;;;2.00;1.90;;;15.20;99.90;;;;;;946696;149;27469;-76
2023/05/12 02:33:51;;;;;;;2.00;1.90;;;15.20;99.90;;;;;;946198;151;27299;-76
2023/05/12 02:36:18;;;;;;;1.87;1.77;;;15.10;99.90;;;;;;945881;150;27307;-76
2023/05/12 02:38:44;;;;;;;2.40;2.20;;;15.10;99.90;;;;;;946455;151;27249;-76
2023/05/12 02:41:11;;;;;;;2.30;2.10;;;15.00;99.90;;;;;;946710;149;27369;-76
2023/05/12 02:43:38;;;;;;;2.55;2.25;;;15.00;99.90;;;;;;946119;151;27476;-76
2023/05/12 02:46:04;;;;;;;2.00;1.90;;;14.90;99.90;;;;;;945213;151;27323;-77
2023/05/12 02:48:31;;;;;;;2.37;2.17;;;14.90;99.90;;;;;;946401;151;27338;-77
2023/05/12 02:50:57;;;;;;;2.47;2.27;;;14.80;99.90;;;;;;946280;148;27444;-74
2023/05/12 02:53:25;;;;;;;2.70;2.00;;;14.80;99.90;;;;;;946303;151;27433;-74
2023/05/12 02:55:50;;;;;;;2.60;2.40;;;14.80;99.90;;;;;;946030;151;27398;-74
2023/05/12 02:58:17;;;;;;;2.70;2.50;;;14.70;99.90;;;;;;946679;150;27724;-74
2023/05/12 03:00:44;;;;;;;2.33;2.23;;;14.70;99.90;;;;;;930266;151;27384;-74
2023/05/12 03:03:11;;;;;;;2.50;2.40;;;14.70;99.90;;;;;;929945;151;27378;-75
2023/05/12 03:05:37;;;;;;;5.40;2.80;;;14.60;99.90;;;;;;929423;151;27310;-74
2023/05/12 03:08:03;;;;;;;2.80;2.60;;;14.60;99.90;;;;;;930063;151;27657;-74
2023/05/12 03:10:30;;;;;;;2.30;2.20;;;14.60;99.90;;;;;;949928;148;27395;-74
2023/05/12 03:12:57;;;;;;;3.07;2.87;;;14.60;99.90;;;;;;950221;148;27363;-74
2023/05/12 03:15:23;;;;;;;2.70;2.50;;;14.60;99.90;;;;;;950529;148;27378;-75
2023/05/12 03:17:50;;;;;;;2.87;2.67;;;14.60;99.90;;;;;;949741;148;27633;-74
2023/05/12 03:20:16;;;;;;;3.20;2.90;;;14.60;99.90;;;;;;926597;151;27424;-74
2023/05/12 03:22:43;;;;;;;2.87;2.53;;;14.60;99.90;;;;;;912142;153;27405;-74
2023/05/12 03:25:10;;;;;;;3.00;2.80;;;14.60;99.90;;;;;;934955;149;27374;-74
2023/05/12 03:27:36;;;;;;;3.60;3.03;;;14.50;99.90;;;;;;934881;149;27329;-74
2023/05/12 03:30:04;;;;;;;3.10;2.80;;;14.50;99.90;;;;;;934107;149;27427;-74
2023/05/12 03:32:29;;;;;;;3.10;2.80;;;14.50;99.90;;;;;;918068;152;27328;-74
2023/05/12 03:34:56;;;;;;;3.80;3.30;;;14.50;99.90;;;;;;923743;152;27404;-74
2023/05/12 03:37:22;;;;;;;3.43;3.13;;;14.40;99.90;;;;;;934244;150;27381;-74
2023/05/12 03:39:49;;;;;;;4.10;3.73;;;14.40;99.90;;;;;;919818;152;27330;-75
2023/05/12 03:42:16;;;;;;;6.30;3.33;;;14.40;99.90;;;;;;911903;153;27375;-74
2023/05/12 03:44:42;;;;;;;3.53;2.97;;;14.40;99.90;;;;;;911773;152;27489;-74
2023/05/12 03:47:09;;;;;;;3.70;3.40;;;14.40;99.90;;;;;;913682;152;27394;-74
2023/05/12 03:49:36;;;;;;;3.80;3.50;;;14.50;99.90;;;;;;935077;149;27427;-74
2023/05/12 03:52:02;;;;;;;3.50;3.20;;;14.50;99.90;;;;;;921389;152;27308;-74
2023/05/12 03:54:29;;;;;;;3.63;3.33;;;14.50;99.90;;;;;;918597;152;27394;-75
2023/05/12 03:56:55;;;;;;;3.70;3.40;;;14.50;99.90;;;;;;912443;152;27394;-74
2023/05/12 03:59:22;;;;;;;3.83;3.40;;;14.50;99.90;;;;;;927948;150;27350;-75
2023/05/12 04:01:48;;;;;;;3.40;3.17;;;14.60;99.90;;;;;;927516;150;27316;-74
2023/05/12 04:04:15;;;;;;;5.27;3.40;;;14.60;99.90;;;;;;934791;149;27314;-75
2023/05/12 04:06:41;;;;;;;3.70;3.40;;;14.60;99.90;;;;;;935446;149;27342;-74
2023/05/12 04:09:08;;;;;;;3.20;3.00;;;14.60;99.90;;;;;;919298;152;28122;-74
2023/05/12 04:11:35;;;;;;;3.80;3.50;;;14.60;99.90;;;;;;932135;149;27320;-74
2023/05/12 04:14:01;;;;;;;3.67;3.37;;;14.60;99.90;;;;;;934315;149;27334;-74
2023/05/12 04:16:28;;;;;;;3.60;3.30;;;14.70;99.90;;;;;;935157;149;27322;-74
2023/05/12 04:18:56;;;;;;;3.90;3.57;;;14.70;99.90;;;;;;918905;152;27482;-74
2023/05/12 04:21:21;;;;;;;3.50;3.20;;;14.70;99.90;;;;;;925183;150;27339;-74
2023/05/12 04:23:48;;;;;;;3.40;3.10;;;14.70;99.90;;;;;;952085;148;27449;-75
2023/05/12 04:26:14;;;;;;;3.40;3.10;;;14.80;99.90;;;;;;951582;148;27306;-74
2023/05/12 04:28:41;;;;;;;3.60;3.30;;;14.80;99.90;;;;;;951543;148;27454;-74
2023/05/12 04:31:07;;;;;;;3.63;3.40;;;14.80;99.90;;;;;;952062;147;27432;-74
2023/05/12 04:33:34;;;;;;;4.05;3.10;;;14.90;99.90;;;;;;951692;148;27343;-74
2023/05/12 04:36:01;;;;;;;3.20;2.90;;;14.90;99.90;;;;;;951850;148;27412;-75
2023/05/12 04:38:27;;;;;;;3.00;2.80;;;14.90;99.90;;;;;;951086;148;27435;-74
2023/05/12 04:40:57;;;;;;;4.07;2.97;;;15.00;99.90;;;;;;952747;147;27355;-74
2023/05/12 04:43:23;;;;;;;3.40;2.87;;;15.00;99.90;;;;;;951227;148;27323;-74
2023/05/12 04:45:50;;;;;;;3.40;3.20;;;15.00;99.90;;;;;;952672;148;27404;-74
2023/05/12 04:48:16;;;;;;;3.63;3.33;;;15.00;99.90;;;;;;952112;148;27316;-74
2023/05/12 04:50:43;;;;;;;4.73;3.10;;;15.10;99.90;;;;;;951746;148;27757;-74
2023/05/12 04:53:10;;;;;;;3.03;2.83;;;15.10;99.90;;;;;;952086;148;27376;-75
2023/05/12 04:55:36;;;;;;;3.33;3.12;;;15.10;99.90;;;;;;952009;148;27333;-74
2023/05/12 04:58:03;;;;;;;2.80;2.60;;;15.20;99.90;;;;;;952036;148;27404;-74
2023/05/12 05:00:30;;;;;;;3.83;3.17;;;15.20;99.90;;;;;;952288;148;27367;-74
2023/05/12 05:02:56;;;;;;;3.02;2.83;;;15.20;99.90;;;;;;951671;148;27259;-74
2023/05/12 05:05:23;;;;;;;2.77;2.57;;;15.20;99.90;;;;;;951976;148;27355;-74
2023/05/12 05:07:49;;;;;;;3.10;2.90;;;15.20;99.90;;;;;;951650;148;27323;-74
2023/05/12 05:10:16;;;;;;;2.98;2.75;;;15.20;99.90;;;;;;952217;148;27456;-74
2023/05/12 05:12:42;;;;;;;2.60;2.40;;;15.20;99.90;;;;;;951532;148;27366;-74
2023/05/12 05:15:10;;;;;;;3.30;2.70;;;15.30;99.90;;;;;;951845;148;27376;-74
2023/05/12 05:17:36;;;;;;;3.00;2.80;;;15.30;99.90;;;;;;936283;150;27373;-74
2023/05/12 05:20:02;;;;;;;3.10;2.90;;;15.30;99.90;;;;;;936087;150;27381;-74
2023/05/12 05:22:29;;;;;;;3.42;3.12;;;15.30;99.90;;;;;;916592;151;27553;-74
2023/05/12 05:24:55;;;;;;;2.80;2.60;;;15.30;99.90;;;;;;913216;153;27884;-74
2023/05/12 05:27:22;;;;;;;2.93;2.73;;;15.40;99.90;;;;;;934083;149;28328;-74
2023/05/12 05:29:48;;;;;;;3.02;2.67;;;15.40;99.90;;;;;;935161;149;27294;-75
2023/05/12 05:32:15;;;;;;;2.67;2.47;;;15.40;99.90;;;;;;934420;150;27346;-75
2023/05/12 05:34:42;;;;;;;2.98;2.77;;;15.50;99.90;;;;;;935512;149;27365;-74
2023/05/12 05:37:08;;;;;;;3.08;2.80;;;15.50;99.90;;;;;;934459;149;27315;-75
2023/05/12 05:39:35;;;;;;;3.60;3.30;;;15.50;99.90;;;;;;935112;149;27302;-74
2023/05/12 05:42:01;;;;;;;2.98;2.77;;;15.60;99.90;;;;;;935138;149;27442;-74
2023/05/12 05:44:28;;;;;;;3.08;2.87;;;15.60;99.90;;;;;;935448;149;27369;-76
2023/05/12 05:46:55;;;;;;;4.10;3.47;;;15.70;99.90;;;;;;935104;150;27328;-76
2023/05/12 05:49:22;;;;;;;2.83;2.62;;;15.70;99.90;;;;;;918544;152;27321;-76
2023/05/12 05:51:48;;;;;;;3.60;3.00;;;15.70;99.90;;;;;;912357;152;27448;-76
2023/05/12 05:54:14;;;;;;;3.33;3.02;;;15.70;99.90;;;;;;934846;149;27374;-76
2023/05/12 05:56:41;;;;;;;3.27;3.00;;;15.80;99.90;;;;;;933591;150;27366;-76
2023/05/12 05:59:08;;;;;;;3.80;3.10;;;15.80;99.90;;;;;;935062;149;27395;-76
2023/05/12 06:01:34;;;;;;;3.30;3.10;;;15.80;99.90;;;;;;934443;149;27338;-76
2023/05/12 06:04:01;;;;;;;2.80;2.60;;;15.90;99.90;;;;;;934855;149;27364;-76
2023/05/12 06:06:27;;;;;;;3.08;2.60;;;16.00;99.90;;;;;;935501;149;27344;-76
2023/05/12 06:08:54;;;;;;;2.90;2.70;;;16.10;99.90;;;;;;912289;153;27362;-77
2023/05/12 06:11:21;;;;;;;3.10;2.90;;;16.10;99.90;;;;;;934859;149;27330;-77
2023/05/12 06:13:47;;;;;;;2.87;2.67;;;16.30;99.90;;;;;;912596;153;27414;-77
2023/05/12 06:16:14;;;;;;;3.37;3.10;;;16.40;99.90;;;;;;912172;153;27442;-77
2023/05/12 06:18:40;;;;;;;3.12;2.85;;;16.50;99.90;;;;;;935016;149;27466;-77
2023/05/12 06:21:07;;;;;;;2.58;2.35;;;16.60;99.90;;;;;;934227;149;27412;-77
2023/05/12 06:23:33;;;;;;;2.40;2.30;;;16.70;99.90;;;;;;918955;152;27374;-77
2023/05/12 06:26:00;;;;;;;2.70;2.50;;;16.80;99.90;;;;;;935836;149;27510;-77
2023/05/12 06:28:27;;;;;;;2.90;2.70;;;16.90;99.90;;;;;;934372;149;27435;-77
2023/05/12 06:30:53;;;;;;;2.75;2.55;;;17.00;99.90;;;;;;917364;152;27384;-77
2023/05/12 06:33:20;;;;;;;2.83;2.47;;;17.00;99.90;;;;;;915802;152;27919;-77
2023/05/12 06:35:47;;;;;;;3.77;2.52;;;17.10;99.90;;;;;;911919;152;27374;-77
2023/05/12 06:38:13;;;;;;;3.45;2.40;;;17.10;99.90;;;;;;920868;151;27404;-77
2023/05/12 06:40:40;;;;;;;3.75;2.42;;;17.10;99.90;;;;;;918174;152;27336;-77
2023/05/12 06:43:06;;;;;;;2.72;2.52;;;17.10;99.90;;;;;;912477;153;27327;-77
2023/05/12 06:45:33;;;;;;;2.98;2.45;;;17.00;99.90;;;;;;935164;149;27275;-77
2023/05/12 06:48:00;;;;;;;2.22;2.05;;;17.00;99.90;;;;;;918412;152;27388;-77
2023/05/12 06:50:26;;;;;;;2.58;2.37;;;17.00;99.90;;;;;;919218;152;27460;-77
2023/05/12 06:52:53;;;;;;;4.25;2.40;;;17.00;99.80;;;;;;923089;151;27291;-76
2023/05/12 06:55:19;;;;;;;2.47;2.27;;;17.00;99.60;;;;;;912596;153;27370;-77
2023/05/12 06:57:46;;;;;;;2.80;2.60;;;16.90;99.50;;;;;;934331;150;27358;-77
2023/05/12 07:00:13;;;;;;;2.50;2.30;;;16.90;99.50;;;;;;918755;152;27399;-77
2023/05/12 07:02:39;;;;;;;2.37;2.17;;;16.90;99.60;;;;;;934206;150;27278;-77
2023/05/12 07:05:06;;;;;;;2.52;2.27;;;16.80;99.50;;;;;;933893;149;27413;-77
2023/05/12 07:07:32;;;;;;;2.70;2.50;;;16.80;99.60;;;;;;918764;152;27356;-77
2023/05/12 07:09:59;;;;;;;2.25;2.12;;;16.80;99.80;;;;;;911307;152;27427;-77
2023/05/12 07:12:26;;;;;;;2.55;2.35;;;16.80;99.80;;;;;;932456;149;27377;-77
2023/05/12 07:14:52;;;;;;;2.72;2.52;;;16.70;99.70;;;;;;928241;150;27353;-77
2023/05/12 07:17:20;;;;;;;2.60;2.40;;;16.70;99.80;;;;;;928071;150;27380;-77
2023/05/12 07:19:45;;;;;;;2.47;2.27;;;16.70;99.90;;;;;;928768;150;27396;-77
2023/05/12 07:22:12;;;;;;;4.85;2.10;;;16.70;99.90;;;;;;934249;150;27925;-77
2023/05/12 07:24:38;;;;;;;2.47;2.27;;;16.70;99.90;;;;;;917834;152;27353;-77
2023/05/12 07:27:05;;;;;;;2.70;2.50;;;16.70;99.90;;;;;;912913;152;27445;-77
2023/05/12 07:29:32;;;;;;;2.47;2.17;;;16.80;99.90;;;;;;913698;152;27436;-77
2023/05/12 07:31:58;;;;;;;2.67;2.47;;;16.80;99.90;;;;;;917834;152;27435;-77
2023/05/12 07:34:25;;;;;;;2.60;2.40;;;16.80;99.90;;;;;;934539;149;27455;-77
2023/05/12 07:36:51;;;;;;;2.95;2.70;;;16.80;99.90;;;;;;934529;150;27322;-77
2023/05/12 07:39:22;;;;;;;2.65;2.45;;;16.80;99.90;;;;;;917933;152;27328;-77
2023/05/12 07:41:45;;;;;;;2.80;2.60;;;16.90;99.90;;;;;;915534;152;27403;-77
2023/05/12 07:44:11;;;;;;;2.40;2.30;;;16.90;99.90;;;;;;935460;149;27397;-77
2023/05/12 07:46:38;;;;;;;2.17;2.08;;;17.00;99.90;;;;;;926877;152;27501;-77
2023/05/12 07:49:06;;;;;;;2.92;2.62;;;17.10;99.90;;;;;;927053;152;27392;-78
2023/05/12 07:51:31;;;;;;;2.85;2.60;;;17.20;99.90;;;;;;918996;152;27392;-78
2023/05/12 07:53:58;;;;;;;2.50;2.30;;;17.30;99.90;;;;;;911957;153;27488;-78
2023/05/12 07:56:24;;;;;;;2.55;2.45;;;17.40;99.90;;;;;;915851;153;27311;-78
2023/05/12 07:58:51;;;;;;;3.33;2.92;;;17.60;99.90;;;;;;935149;149;27335;-78
2023/05/12 08:01:17;;;;;;;2.60;2.40;;;17.80;99.90;;;;;;911386;152;27448;-78
2023/05/12 08:03:44;;;;;;;3.00;2.80;;;17.90;99.90;;;;;;935465;149;27385;-78
2023/05/12 08:06:10;;;;;;;3.00;2.80;;;18.10;99.90;;;;;;933862;149;27411;-78
2023/05/12 08:08:37;;;;;;;2.92;2.62;;;18.30;99.90;;;;;;912609;153;27326;-77
2023/05/12 08:11:04;;;;;;;3.08;2.50;;;18.50;99.90;;;;;;935095;149;27481;-77
2023/05/12 08:13:30;;;;;;;2.37;2.08;;;18.70;99.90;;;;;;918171;152;27320;-77
2023/05/12 08:15:57;;;;;;;2.22;2.12;;;18.90;99.90;;;;;;919039;152;27392;-77
2023/05/12 08:18:23;;;;;;;2.50;2.25;;;19.10;99.50;;;;;;917648;152;27433;-77
2023/05/12 08:20:50;;;;;;;2.50;2.30;;;19.30;98.50;;;;;;934821;149;27415;-77
2023/05/12 08:23:17;;;;;;;2.47;2.37;;;19.40;97.90;;;;;;938609;148;27491;-77
2023/05/12 08:25:43;;;;;;;2.60;2.40;;;19.50;97.20;;;;;;936766;151;27462;-77
2023/05/12 08:28:10;;;;;;;3.30;2.40;;;19.60;96.70;;;;;;924469;151;27372;-77
2023/05/12 08:30:36;;;;;;;2.17;1.98;;;19.70;95.60;;;;;;948321;151;27396;-77
2023/05/12 08:33:03;;;;;;;2.42;2.30;;;19.70;95.20;;;;;;948025;151;27336;-77
2023/05/12 08:35:30;;;;;;;2.75;2.30;;;19.80;94.90;;;;;;947859;148;27489;-77
2023/05/12 08:37:56;;;;;;;2.67;2.40;;;19.80;94.90;;;;;;948480;151;27394;-77
2023/05/12 08:40:23;;;;;;;2.40;2.20;;;19.90;94.60;;;;;;947449;150;27387;-77
2023/05/12 08:42:54;;;;;;;2.67;2.45;;;20.00;94.70;;;;;;947762;148;27278;-77
2023/05/12 08:45:19;;;;;;;2.65;2.25;;;20.10;94.60;;;;;;947074;148;27430;-77
2023/05/12 08:47:45;;;;;;;2.33;2.10;;;20.30;94.40;;;;;;948106;151;27369;-77
2023/05/12 08:50:12;;;;;;;2.25;2.08;;;20.40;94.30;;;;;;948137;148;27360;-77
2023/05/12 08:52:39;;;;;;;2.27;2.17;;;20.60;94.20;;;;;;947877;148;27443;-77
2023/05/12 08:55:05;;;;;;;3.55;2.30;;;20.70;93.60;;;;;;947799;150;27409;-77
2023/05/12 08:57:32;;;;;;;2.52;2.12;;;20.90;92.70;;;;;;947783;148;27291;-78
2023/05/12 08:59:58;;;;;;;3.05;2.22;;;21.00;91.60;;;;;;947858;150;27730;-77
2023/05/12 09:02:25;;;;;;;2.45;2.25;;;21.00;90.90;;;;;;947920;148;27400;-77
2023/05/12 09:04:53;;;;;;;2.45;2.30;;;21.10;90.40;;;;;;948205;150;27894;-77
2023/05/12 09:07:18;;;;;;;2.37;2.17;;;21.10;90.10;;;;;;947152;148;27341;-77
2023/05/12 09:09:45;;;;;;;2.60;2.37;;;21.10;90.00;;;;;;947649;151;27411;-77
2023/05/12 09:12:11;;;;;;;2.75;2.08;;;21.20;89.90;;;;;;947567;150;27445;-77
2023/05/12 09:14:38;;;;;;;2.22;2.05;;;21.20;89.20;;;;;;947794;148;27268;-77
2023/05/12 09:17:05;;;;;;;2.27;2.17;;;21.20;88.70;;;;;;947524;151;27312;-77
2023/05/12 09:19:31;;;;;;;2.15;2.00;;;21.30;88.40;;;;;;947927;151;27369;-77
2023/05/12 09:21:58;;;;;;;2.25;2.08;;;21.30;88.40;;;;;;947400;148;27357;-77
2023/05/12 09:24:36;;;;;;;2.45;1.95;;;21.40;89.20;;;;;;944525;151;27361;-77
2023/05/12 09:27:03;;;;;;;2.35;1.98;;;21.40;88.80;;;;;;942906;150;27352;-77
2023/05/12 09:29:30;;;;;;;2.40;2.20;;;21.50;87.10;;;;;;943443;150;27339;-77
2023/05/12 09:32:00;;;;;;;2.83;1.95;;;21.60;85.90;;;;;;911425;153;27423;-77
2023/05/12 09:34:29;;;;;;;1.98;1.62;;;21.60;85.30;;;;;;915885;153;27394;-77
2023/05/12 09:36:57;;;;;;;1.65;1.55;;;21.80;84.10;;;;;;916604;153;27320;-78
2023/05/12 09:39:24;;;;;;;1.77;1.67;;;21.80;81.50;;;;;;935109;149;27371;-77
2023/05/12 09:41:53;;;;;;;1.98;1.70;;;21.80;80.00;;;;;;933585;149;27292;-77
2023/05/12 09:44:17;;;;;;;1.75;1.65;;;21.80;79.20;;;;;;932780;149;27289;-77
2023/05/12 09:46:44;;;;;;;1.60;1.50;;;21.80;78.60;;;;;;933459;149;27341;-77
2023/05/12 09:49:10;;;;;;;1.45;1.35;;;21.80;78.00;;;;;;934803;149;27371;-77
2023/05/12 09:51:37;;;;;;;1.70;1.60;;;21.80;78.10;;;;;;933822;149;27344;-78
2023/05/12 09:54:04;;;;;;;2.22;1.50;;;21.80;78.80;;;;;;933593;149;27272;-77
2023/05/12 09:56:34;;;;;;;1.50;1.40;;;21.90;80.10;;;;;;934403;149;27774;-78
2023/05/12 09:58:59;;;;;;;1.70;1.60;;;22.00;80.30;;;;;;934063;149;27462;-78
2023/05/12 10:01:26;;;;;;;1.40;1.30;;;22.20;79.80;;;;;;933593;149;27357;-77
2023/05/12 10:03:53;;;;;;;1.27;1.17;;;22.40;78.50;;;;;;934497;149;27333;-77
2023/05/12 10:06:32;;;;;;;1.57;1.47;;;22.60;76.90;;;;;;932594;149;27292;-78
2023/05/12 10:09:04;;;;;;;1.80;1.40;;;22.60;76.00;;;;;;931650;149;27346;-78
2023/05/12 10:11:30;;;;;;;0.98;0.98;;;22.70;75.50;;;;;;933422;149;27377;-78
2023/05/12 10:13:57;;;;;;;1.35;1.20;;;22.80;74.60;;;;;;934526;149;27761;-78
2023/05/12 10:16:24;;;;;;;1.20;1.20;;;22.80;74.10;;;;;;933811;149;27312;-77
2023/05/12 10:18:50;;;;;;;1.25;1.25;;;22.90;73.20;;;;;;933116;149;27281;-77
2023/05/12 10:21:17;;;;;;;1.67;1.10;;;22.80;72.60;;;;;;934180;149;27440;-77
2023/05/12 10:23:43;;;;;;;1.27;1.17;;;22.80;71.90;;;;;;933942;149;27356;-78
2023/05/12 10:26:10;;;;;;;1.62;1.52;;;22.80;71.30;;;;;;952237;147;27332;-78
2023/05/12 10:28:36;;;;;;;1.30;1.30;;;22.70;70.80;;;;;;938861;150;27425;-77
2023/05/12 10:31:03;;;;;;;2.85;1.32;;;22.60;70.00;;;;;;945635;149;27453;-78
2023/05/12 10:33:30;;;;;;;1.50;1.40;;;22.40;69.50;;;;;;949599;151;27465;-78
2023/05/12 10:35:56;;;;;;;1.27;1.17;;;22.30;69.20;;;;;;949079;151;27923;-78
2023/05/12 10:38:24;;;;;;;1.45;1.35;;;22.00;69.20;;;;;;935941;150;27449;-77
2023/05/12 10:40:58;;;;;;;1.72;1.30;;;21.90;69.30;;;;;;952274;147;27324;-77
2023/05/12 10:43:25;;;;;;;1.20;1.20;;;21.70;69.60;;;;;;937693;150;27377;-77
2023/05/12 10:46:12;;;;;;;1.30;1.20;;;21.60;70.00;;;;;;955247;147;27308;-77
2023/05/12 10:49:03;;;;;;;1.40;1.30;;;21.40;70.40;;;;;;936287;150;27342;-77
2023/05/12 10:51:29;;;;;;;1.47;1.37;;;21.30;71.60;;;;;;953682;147;27425;-77
2023/05/12 10:53:59;;;;;;;2.10;1.32;;;21.20;72.20;;;;;;936500;150;27493;-77
2023/05/12 10:56:25;;;;;;;1.40;1.40;;;21.20;72.80;;;;;;936353;150;27312;-77
2023/05/12 10:59:20;;;;;;;1.42;1.32;;;21.10;73.20;;;;;;937055;150;27431;-77
2023/05/12 11:01:56;;;;;;;1.45;1.35;;;21.10;73.40;;;;;;949516;148;27432;-77
2023/05/12 11:04:24;;;;;;;1.77;1.27;;;21.20;73.50;;;;;;949284;151;27364;-77
2023/05/12 11:06:48;;;;;;;1.32;1.30;;;21.20;73.30;;;;;;948282;151;27364;-77
2023/05/12 11:09:15;;;;;;;1.50;1.40;;;21.20;73.10;;;;;;947378;148;27436;-77
2023/05/12 11:11:42;;;;;;;1.55;1.45;;;21.30;72.80;;;;;;950042;150;27312;-77
2023/05/12 11:14:08;;;;;;;1.35;1.32;;;21.20;71.80;;;;;;949398;148;27317;-77
2023/05/12 11:16:35;;;;;;;1.67;1.57;;;21.30;71.50;;;;;;949531;148;27367;-77
2023/05/12 11:19:01;;;;;;;1.30;1.27;;;21.20;71.40;;;;;;947896;148;27334;-77
2023/05/12 11:21:29;;;;;;;2.98;1.60;;;21.10;71.20;;;;;;936137;150;27476;-77
2023/05/12 11:23:55;;;;;;;1.20;1.20;;;21.00;71.40;;;;;;948993;151;27455;-77
2023/05/12 11:26:21;;;;;;;1.25;1.25;;;20.90;71.50;;;;;;946530;148;27354;-77
2023/05/12 11:28:48;;;;;;;1.45;1.35;;;20.70;71.40;;;;;;930583;151;27405;-77
2023/05/12 11:31:18;;;;;;;1.15;1.15;;;20.60;71.60;;;;;;927671;152;27704;-77
2023/05/12 11:33:44;;;;;;;1.32;1.22;;;20.50;71.90;;;;;;927402;151;27318;-77
2023/05/12 11:36:11;;;;;;;1.87;1.30;;;20.40;72.70;;;;;;946205;148;27408;-77
2023/05/12 11:38:37;;;;;;;1.37;1.37;;;20.40;72.80;;;;;;947322;149;27388;-77
2023/05/12 11:41:04;;;;;;;1.27;1.27;;;20.30;72.20;;;;;;947586;148;27357;-77
2023/05/12 11:43:30;;;;;;;2.12;2.02;;;20.20;71.90;;;;;;946733;149;27367;-77
2023/05/12 11:45:58;;;;;;;2.42;2.22;;;20.00;71.90;;;;;;947836;149;27334;-77
2023/05/12 11:48:24;;;;;;;1.70;1.60;;;19.90;72.40;;;;;;947182;149;27308;-77
2023/05/12 11:50:50;;;;;;;1.60;1.50;;;19.70;72.70;;;;;;945153;148;27461;-77
2023/05/12 11:53:17;;;;;;;1.55;1.45;;;19.60;73.20;;;;;;946942;149;27285;-77
2023/05/12 11:55:46;;;;;;;2.05;1.57;;;19.60;73.60;;;;;;947086;149;27336;-77
2023/05/12 11:58:13;;;;;;;1.77;1.67;;;19.50;73.80;;;;;;945856;149;27428;-77
2023/05/12 12:00:40;;;;;;;2.10;2.00;;;19.50;74.10;;;;;;945548;149;27371;-77
2023/05/12 12:03:06;;;;;;;3.25;1.80;;;19.50;74.40;;;;;;927535;152;27471;-77
2023/05/12 12:05:32;;;;;;;1.45;1.35;;;19.50;74.70;;;;;;928193;151;27381;-77
2023/05/12 12:08:05;;;;;;;1.60;1.50;;;19.60;75.00;;;;;;946978;148;27344;-77
2023/05/12 12:10:32;;;;;;;1.82;1.72;;;19.70;75.40;;;;;;947356;148;27492;-77
2023/05/12 12:12:58;;;;;;;1.92;1.60;;;19.80;75.40;;;;;;926775;151;27452;-77
2023/05/12 12:15:25;;;;;;;1.85;1.75;;;20.00;75.20;;;;;;926550;151;27308;-77
2023/05/12 12:17:51;;;;;;;1.47;1.40;;;20.10;74.60;;;;;;930492;151;27355;-77
2023/05/12 12:20:18;;;;;;;1.17;1.17;;;20.30;73.90;;;;;;947294;148;27361;-77
2023/05/12 12:22:44;;;;;;;1.22;1.22;;;20.40;72.70;;;;;;947102;148;27359;-77
2023/05/12 12:25:11;;;;;;;1.22;1.02;;;20.60;72.10;;;;;;946566;148;27732;-77
2023/05/12 12:27:38;;;;;;;1.25;1.22;;;20.70;71.60;;;;;;935519;149;27439;-77
2023/05/12 12:30:04;;;;;;;0.95;0.95;;;20.80;71.50;;;;;;934766;149;27761;-77
2023/05/12 12:32:31;;;;;;;2.12;1.22;;;20.90;71.40;;;;;;933902;149;27436;-77
2023/05/12 12:35:00;;;;;;;1.27;1.17;;;21.00;71.20;;;;;;934386;149;27378;-77
2023/05/12 12:37:24;;;;;;;1.82;1.42;;;21.20;70.80;;;;;;934682;149;27335;-77
2023/05/12 12:39:51;;;;;;;1.10;1.10;;;21.30;70.40;;;;;;934363;149;27369;-80
2023/05/12 12:42:17;;;;;;;1.20;1.10;;;21.40;70.10;;;;;;935116;149;27714;-78
2023/05/12 12:44:46;;;;;;;1.32;1.27;;;21.40;70.00;;;;;;933897;149;27459;-78
2023/05/12 12:47:10;;;;;;;1.10;1.10;;;21.50;69.60;;;;;;933086;149;27444;-78